createdAt,value
2022-09-07T00:02:20.856Z,18.95
2022-09-07T00:04:47.594Z,18.87
2022-09-07T00:07:14.068Z,18.82
2022-09-07T00:09:40.699Z,18.87
2022-09-07T00:12:07.371Z,18.86
2022-09-07T00:14:34.769Z,18.87
2022-09-07T00:17:01.242Z,18.82
2022-09-07T00:19:27.759Z,18.81
2022-09-07T00:21:54.239Z,18.77
2022-09-07T00:24:20.787Z,18.78
2022-09-07T00:26:47.326Z,18.86
2022-09-07T00:29:13.978Z,18.84
2022-09-07T00:31:40.614Z,18.89
2022-09-07T00:34:07.265Z,18.85
2022-09-07T00:36:33.916Z,18.83
2022-09-07T00:39:00.993Z,18.75
2022-09-07T00:41:27.727Z,18.73
2022-09-07T00:43:57.096Z,18.66
2022-09-07T00:46:26.750Z,18.73
2022-09-07T00:49:08.033Z,18.79
2022-09-07T00:51:46.201Z,18.78
2022-09-07T00:54:24.237Z,18.81
2022-09-07T00:56:54.796Z,18.72
2022-09-07T00:59:29.146Z,18.72
2022-09-07T01:01:55.931Z,18.64
2022-09-07T01:04:23.689Z,18.62
2022-09-07T01:06:50.758Z,18.62
2022-09-07T01:09:22.191Z,18.59
2022-09-07T01:11:51.151Z,18.57
2022-09-07T01:14:28.915Z,18.46
2022-09-07T01:17:15.392Z,18.37
2022-09-07T01:20:17.739Z,18.35
2022-09-07T01:22:53.321Z,18.36
2022-09-07T01:25:43.626Z,18.29
2022-09-07T01:28:12.205Z,18.27
2022-09-07T01:30:42.171Z,18.31
2022-09-07T01:33:34.273Z,18.25
2022-09-07T01:36:35.707Z,18.27
2022-09-07T01:39:04.490Z,18.24
2022-09-07T01:41:39.071Z,18.14
2022-09-07T01:44:23.622Z,18.09
2022-09-07T01:46:59.017Z,18.03
2022-09-07T01:49:43.357Z,18.00
2022-09-07T01:52:32.112Z,17.94
2022-09-07T01:55:04.411Z,17.79
2022-09-07T01:57:44.526Z,17.82
2022-09-07T02:00:15.550Z,17.80
2022-09-07T02:02:48.840Z,17.77
2022-09-07T02:05:23.840Z,17.73
2022-09-07T02:08:13.424Z,17.72
2022-09-07T02:10:45.327Z,17.73
2022-09-07T02:13:23.662Z,17.73
2022-09-07T02:16:01.899Z,17.71
2022-09-07T02:18:36.391Z,17.73
2022-09-07T02:21:08.533Z,17.77
2022-09-07T02:23:50.961Z,17.73
2022-09-07T02:26:21.856Z,17.81
2022-09-07T02:28:48.842Z,17.82
2022-09-07T02:31:18.349Z,17.77
2022-09-07T02:33:45.107Z,17.71
2022-09-07T02:36:16.219Z,17.58
2022-09-07T02:38:44.431Z,17.65
2022-09-07T02:41:49.650Z,17.59
2022-09-07T02:44:21.271Z,17.63
2022-09-07T02:47:07.305Z,17.71
2022-09-07T02:49:55.366Z,17.73
2022-09-07T02:52:31.171Z,17.77
2022-09-07T02:55:24.427Z,17.80
2022-09-07T02:58:03.034Z,17.74
2022-09-07T03:00:34.109Z,17.67
2022-09-07T03:03:15.617Z,17.57
2022-09-07T03:06:04.716Z,17.46
2022-09-07T03:09:05.517Z,17.42
2022-09-07T03:11:32.389Z,17.41
2022-09-07T03:14:12.106Z,17.40
2022-09-07T03:16:41.397Z,17.39
2022-09-07T03:19:11.519Z,17.40
2022-09-07T03:21:38.164Z,17.37
2022-09-07T03:24:05.336Z,17.42
2022-09-07T03:26:31.945Z,17.41
2022-09-07T03:28:58.926Z,17.38
2022-09-07T03:31:25.976Z,17.44
2022-09-07T03:33:52.565Z,17.47
2022-09-07T03:36:19.105Z,17.45
2022-09-07T03:38:45.640Z,17.27
2022-09-07T03:41:14.708Z,17.30
2022-09-07T03:43:41.404Z,17.39
2022-09-07T03:46:10.518Z,17.39
2022-09-07T03:48:41.503Z,17.36
2022-09-07T03:51:10.416Z,17.35
2022-09-07T03:53:40.128Z,17.24
2022-09-07T03:56:10.556Z,17.19
2022-09-07T03:58:37.612Z,17.13
2022-09-07T04:01:09.176Z,17.14
2022-09-07T04:03:36.258Z,17.08
2022-09-07T04:06:04.235Z,17.07
2022-09-07T04:08:33.003Z,17.07
2022-09-07T04:11:01.600Z,17.09
2022-09-07T04:13:29.595Z,17.05
2022-09-07T04:15:56.679Z,16.98
2022-09-07T04:18:26.091Z,16.94
2022-09-07T04:20:52.809Z,17.03
2022-09-07T04:23:20.137Z,17.09
2022-09-07T04:25:51.616Z,17.12
2022-09-07T04:28:19.872Z,17.15
2022-09-07T04:30:47.517Z,17.22
2022-09-07T04:33:14.713Z,17.25
2022-09-07T04:35:42.601Z,17.29
2022-09-07T04:38:13.745Z,17.35
2022-09-07T04:40:43.876Z,17.34
2022-09-07T04:43:13.029Z,17.42
2022-09-07T04:45:40.248Z,17.45
2022-09-07T04:48:07.394Z,17.46
2022-09-07T04:50:34.108Z,17.44
2022-09-07T04:53:00.836Z,17.42
2022-09-07T04:55:27.569Z,17.35
2022-09-07T04:57:54.230Z,17.34
2022-09-07T05:00:20.779Z,17.34
2022-09-07T05:02:47.544Z,17.41
2022-09-07T05:05:14.452Z,17.42
2022-09-07T05:07:41.178Z,17.45
2022-09-07T05:10:08.457Z,17.48
2022-09-07T05:12:37.257Z,17.44
2022-09-07T05:15:05.109Z,17.43
2022-09-07T05:17:31.785Z,17.45
2022-09-07T05:19:58.508Z,17.53
2022-09-07T05:22:29.164Z,17.63
2022-09-07T05:24:55.955Z,17.67
2022-09-07T05:27:22.841Z,17.66
2022-09-07T05:30:07.046Z,17.72
2022-09-07T05:32:33.880Z,17.75
2022-09-07T05:35:00.567Z,17.84
2022-09-07T05:37:29.750Z,17.87
2022-09-07T05:39:56.974Z,17.91
2022-09-07T05:42:23.963Z,17.88
2022-09-07T05:44:50.606Z,17.89
2022-09-07T05:47:17.953Z,17.93
2022-09-07T05:49:51.032Z,17.97
2022-09-07T05:52:19.579Z,17.99
2022-09-07T05:54:47.336Z,18.06
2022-09-07T05:57:15.531Z,18.17
2022-09-07T05:59:42.240Z,18.27
2022-09-07T06:02:13.706Z,18.28
2022-09-07T06:04:40.569Z,18.40
2022-09-07T06:07:23.781Z,18.52
2022-09-07T06:12:37.201Z,18.69
2022-09-07T06:15:05.391Z,18.72
2022-09-07T06:17:32.255Z,18.72
2022-09-07T06:20:00.387Z,18.79
2022-09-07T06:22:30.756Z,18.91
2022-09-07T06:24:58.201Z,18.92
2022-09-07T06:27:26.956Z,18.95
2022-09-07T06:29:59.140Z,19.04
2022-09-07T06:32:44.561Z,19.07
2022-09-07T06:35:12.477Z,19.13
2022-09-07T06:37:44.319Z,19.13
2022-09-07T06:40:14.492Z,19.24
2022-09-07T06:42:41.076Z,19.34
2022-09-07T06:45:10.109Z,19.49
2022-09-07T06:47:38.367Z,19.57
2022-09-07T06:50:05.220Z,19.62
2022-09-07T06:55:21.236Z,19.70
2022-09-07T06:57:54.486Z,19.72
2022-09-07T07:00:21.387Z,19.78
2022-09-07T07:02:48.148Z,19.78
2022-09-07T07:05:17.798Z,19.81
2022-09-07T07:07:44.533Z,19.83
2022-09-07T07:10:23.719Z,19.87
2022-09-07T07:12:53.054Z,19.94
2022-09-07T07:15:22.062Z,19.94
2022-09-07T07:17:58.100Z,19.88
2022-09-07T07:20:25.974Z,19.86
2022-09-07T07:22:55.707Z,19.80
2022-09-07T07:25:23.005Z,19.75
2022-09-07T07:27:52.741Z,19.86
2022-09-07T07:30:19.660Z,19.88
2022-09-07T07:32:47.059Z,19.89
2022-09-07T07:35:14.295Z,19.85
2022-09-07T07:37:44.113Z,19.89
2022-09-07T07:40:24.416Z,19.95
2022-09-07T07:42:53.188Z,20.19
2022-09-07T07:48:14.531Z,21.18
2022-09-07T07:50:43.748Z,21.61
2022-09-07T07:56:03.271Z,22.05
2022-09-07T07:58:31.793Z,22.09
2022-09-07T08:01:08.461Z,22.28
2022-09-07T08:03:38.263Z,22.48
2022-09-07T08:06:10.137Z,22.60
2022-09-07T08:08:41.051Z,22.76
2022-09-07T08:11:11.039Z,22.97
2022-09-07T08:13:46.978Z,23.27
2022-09-07T08:16:13.822Z,23.48
2022-09-07T08:18:41.029Z,23.69
2022-09-07T08:21:12.972Z,23.67
2022-09-07T08:23:40.255Z,23.74
2022-09-07T08:26:08.026Z,23.65
2022-09-07T08:28:38.252Z,23.79
2022-09-07T08:31:07.280Z,24.20
2022-09-07T08:33:38.322Z,24.52
2022-09-07T08:36:08.807Z,24.47
2022-09-07T08:38:36.643Z,24.39
2022-09-07T08:41:26.636Z,24.49
2022-09-07T08:43:57.192Z,24.76
2022-09-07T08:46:47.685Z,24.92
2022-09-07T08:49:36.831Z,24.91
2022-09-07T08:52:26.082Z,24.98
2022-09-07T08:55:12.082Z,24.99
2022-09-07T08:57:44.173Z,25.07
2022-09-07T09:00:16.670Z,25.29
2022-09-07T09:02:46.445Z,25.54
2022-09-07T09:05:50.228Z,25.98
2022-09-07T09:09:05.026Z,25.81
2022-09-07T09:11:53.420Z,26.04
2022-09-07T09:14:57.118Z,25.99
2022-09-07T09:17:35.659Z,26.41
2022-09-07T09:20:20.814Z,26.75
2022-09-07T09:22:50.436Z,26.89
2022-09-07T09:25:21.369Z,26.65
2022-09-07T09:27:49.400Z,26.89
2022-09-07T09:30:21.746Z,27.19
2022-09-07T09:33:14.193Z,26.86
2022-09-07T09:35:45.433Z,27.10
2022-09-07T09:38:29.262Z,27.34
2022-09-07T09:40:58.083Z,27.34
2022-09-07T09:43:30.373Z,27.47
2022-09-07T09:46:13.658Z,27.57
2022-09-07T09:48:42.879Z,28.08
2022-09-07T09:54:19.605Z,28.48
2022-09-07T09:56:50.066Z,27.94
2022-09-07T10:05:37.374Z,28.60
2022-09-07T10:08:17.895Z,28.68
2022-09-07T10:10:55.533Z,27.93
2022-09-07T10:13:36.882Z,27.50
2022-09-07T10:16:06.587Z,27.30
2022-09-07T10:18:39.920Z,27.68
2022-09-07T10:21:27.866Z,27.66
2022-09-07T10:24:12.633Z,27.74
2022-09-07T10:26:40.483Z,27.93
2022-09-07T10:29:15.232Z,28.37
2022-09-07T10:32:00.993Z,28.46
2022-09-07T10:34:27.594Z,28.89
2022-09-07T10:37:09.574Z,29.07
2022-09-07T10:39:42.951Z,28.97
2022-09-07T10:42:09.766Z,29.31
2022-09-07T10:45:05.797Z,29.60
2022-09-07T10:48:09.962Z,29.93
2022-09-07T10:50:44.679Z,29.52
2022-09-07T10:53:47.643Z,28.88
2022-09-07T10:56:52.659Z,28.54
2022-09-07T10:59:22.101Z,28.49
2022-09-07T11:01:58.770Z,28.10
2022-09-07T11:04:36.934Z,28.28
2022-09-07T11:07:42.370Z,28.21
2022-09-07T11:10:50.625Z,28.39
2022-09-07T11:13:22.931Z,28.35
2022-09-07T11:15:55.317Z,28.51
2022-09-07T11:18:35.306Z,28.67
2022-09-07T11:21:06.491Z,29.19
2022-09-07T11:23:58.099Z,29.70
2022-09-07T11:26:53.827Z,30.17
2022-09-07T11:29:35.555Z,29.68
2022-09-07T11:32:18.116Z,29.50
2022-09-07T11:34:59.020Z,29.47
2022-09-07T11:37:30.897Z,29.23
2022-09-07T11:40:18.177Z,28.41
2022-09-07T11:42:59.650Z,28.09
2022-09-07T11:45:40.283Z,28.66
2022-09-07T11:48:19.876Z,29.14
2022-09-07T11:50:54.238Z,29.27
2022-09-07T11:53:39.345Z,29.27
2022-09-07T11:56:36.283Z,28.93
2022-09-07T11:59:26.590Z,29.72
2022-09-07T12:02:55.254Z,29.51
2022-09-07T12:05:54.146Z,28.74
2022-09-07T12:08:43.726Z,29.53
2022-09-07T12:11:45.140Z,28.88
2022-09-07T12:14:18.045Z,29.63
2022-09-07T12:16:54.749Z,29.43
2022-09-07T12:19:26.603Z,29.01
2022-09-07T12:21:53.032Z,29.13
2022-09-07T12:24:46.812Z,28.77
2022-09-07T12:27:22.536Z,28.51
2022-09-07T12:30:10.374Z,28.47
2022-09-07T12:32:54.848Z,28.46
2022-09-07T12:35:31.939Z,29.06
2022-09-07T12:38:24.247Z,29.42
2022-09-07T12:41:04.000Z,29.98
2022-09-07T12:43:31.703Z,29.72
2022-09-07T12:46:00.829Z,29.66
2022-09-07T12:48:50.153Z,29.86
2022-09-07T12:54:45.521Z,30.53
2022-09-07T12:57:41.212Z,29.98
2022-09-07T13:00:35.907Z,29.79
2022-09-07T13:03:55.100Z,29.92
2022-09-07T13:09:31.541Z,29.40
2022-09-07T13:15:33.224Z,29.70
2022-09-07T13:18:00.732Z,29.10
2022-09-07T13:20:34.795Z,28.66
2022-09-07T13:23:26.293Z,28.79
2022-09-07T13:25:55.332Z,29.24
2022-09-07T13:28:49.183Z,29.49
2022-09-07T13:31:40.036Z,29.57
2022-09-07T13:34:34.573Z,29.90
2022-09-07T13:37:03.192Z,30.29
2022-09-07T13:39:44.585Z,30.39
2022-09-07T13:42:37.860Z,30.39
2022-09-07T13:45:07.480Z,30.42
2022-09-07T13:48:06.395Z,30.40
2022-09-07T13:51:06.010Z,30.10
2022-09-07T13:53:48.365Z,29.62
2022-09-07T13:56:33.303Z,29.24
2022-09-07T13:59:10.854Z,28.79
2022-09-07T14:01:45.309Z,28.55
2022-09-07T14:04:22.677Z,28.54
2022-09-07T14:06:49.169Z,28.55
2022-09-07T14:09:18.634Z,28.67
2022-09-07T14:11:46.384Z,28.86
2022-09-07T14:14:22.068Z,28.86
2022-09-07T14:16:59.124Z,28.83
2022-09-07T14:19:51.957Z,28.85
2022-09-07T14:22:41.947Z,29.17
2022-09-07T14:25:17.857Z,29.30
2022-09-07T14:27:46.953Z,29.19
2022-09-07T14:30:33.286Z,28.98
2022-09-07T14:33:55.854Z,28.82
2022-09-07T14:36:47.984Z,28.97
2022-09-07T14:39:18.995Z,29.36
2022-09-07T14:41:46.520Z,29.77
2022-09-07T14:44:45.381Z,30.27
2022-09-07T14:47:29.250Z,30.30
2022-09-07T14:49:58.215Z,30.01
2022-09-07T14:52:38.016Z,30.18
2022-09-07T14:55:32.478Z,30.17
2022-09-07T14:58:14.058Z,30.40
2022-09-07T15:00:41.219Z,30.26
2022-09-07T15:03:34.455Z,30.19
2022-09-07T15:06:06.299Z,30.12
2022-09-07T15:08:47.535Z,30.04
2022-09-07T15:11:39.527Z,30.01
2022-09-07T15:14:19.666Z,29.83
2022-09-07T15:19:50.365Z,29.68
2022-09-07T15:22:19.940Z,29.64
2022-09-07T15:24:47.584Z,29.65
2022-09-07T15:27:26.716Z,29.79
2022-09-07T15:29:53.300Z,29.97
2022-09-07T15:32:20.070Z,29.76
2022-09-07T15:34:46.951Z,29.98
2022-09-07T15:40:01.861Z,29.86
2022-09-07T15:45:16.062Z,29.86
2022-09-07T15:47:52.176Z,29.94
2022-09-07T15:50:19.486Z,29.92
2022-09-07T15:52:46.550Z,29.93
2022-09-07T15:55:13.550Z,29.92
2022-09-07T15:58:10.666Z,30.21
2022-09-07T16:00:27.050Z,31.45
2022-09-07T16:03:09.419Z,32.11
2022-09-07T16:05:40.271Z,32.84
2022-09-07T16:10:55.553Z,34.23
2022-09-07T16:13:26.667Z,34.11
2022-09-07T16:15:53.313Z,33.20
2022-09-07T16:18:20.376Z,32.76
2022-09-07T16:20:47.325Z,31.44
2022-09-07T16:23:16.393Z,30.70
2022-09-07T16:25:58.671Z,29.85
2022-09-07T16:28:26.712Z,29.32
2022-09-07T16:30:56.618Z,29.05
2022-09-07T16:33:31.234Z,28.84
2022-09-07T16:36:07.496Z,28.71
2022-09-07T16:38:45.533Z,28.64
2022-09-07T16:41:26.538Z,28.43
2022-09-07T16:43:54.634Z,28.03
2022-09-07T16:46:23.424Z,27.92
2022-09-07T16:48:56.279Z,27.77
2022-09-07T16:51:25.428Z,27.68
2022-09-07T16:53:54.280Z,27.62
2022-09-07T16:56:23.554Z,27.56
2022-09-07T16:58:56.464Z,27.45
2022-09-07T17:01:28.961Z,27.33
2022-09-07T17:03:58.419Z,27.20
2022-09-07T17:06:29.675Z,27.20
2022-09-07T17:08:58.308Z,27.06
2022-09-07T17:11:30.974Z,27.01
2022-09-07T17:13:59.044Z,26.95
2022-09-07T17:16:34.824Z,26.77
2022-09-07T17:21:57.986Z,26.54
2022-09-07T17:24:24.576Z,26.40
2022-09-07T17:26:51.024Z,26.30
2022-09-07T17:29:17.610Z,26.23
2022-09-07T17:34:36.656Z,26.08
2022-09-07T17:37:03.256Z,25.98
2022-09-07T17:39:31.478Z,25.92
2022-09-07T17:42:01.268Z,25.85
2022-09-07T17:44:35.433Z,25.75
2022-09-07T17:47:05.109Z,25.62
2022-09-07T17:49:34.828Z,25.54
2022-09-07T17:52:01.758Z,25.45
2022-09-07T17:54:30.957Z,25.37
2022-09-07T17:56:57.537Z,25.29
2022-09-07T18:02:15.826Z,25.17
2022-09-07T18:04:42.961Z,25.05
2022-09-07T18:07:17.619Z,24.99
2022-09-07T18:09:44.561Z,24.92
2022-09-07T18:12:11.308Z,24.85
2022-09-07T18:14:38.018Z,24.80
2022-09-07T18:17:05.386Z,24.73
2022-09-07T18:19:32.142Z,24.66
2022-09-07T18:21:59.074Z,24.62
2022-09-07T18:24:41.700Z,24.57
2022-09-07T18:27:10.394Z,24.52
2022-09-07T18:29:37.779Z,24.49
2022-09-07T18:32:08.647Z,24.50
2022-09-07T18:34:36.496Z,24.49
2022-09-07T18:37:03.079Z,24.50
2022-09-07T18:39:33.480Z,24.51
2022-09-07T18:42:00.133Z,24.46
2022-09-07T18:47:23.303Z,24.39
2022-09-07T18:49:54.896Z,24.30
2022-09-07T18:55:09.994Z,24.15
2022-09-07T18:57:43.312Z,24.06
2022-09-07T19:00:12.587Z,23.95
2022-09-07T19:02:42.421Z,23.86
2022-09-07T19:07:59.520Z,23.77
2022-09-07T19:10:26.023Z,23.72
2022-09-07T19:12:52.536Z,23.75
2022-09-07T19:15:20.510Z,23.75
2022-09-07T19:17:47.034Z,23.77
2022-09-07T19:20:13.668Z,23.69
2022-09-07T19:22:42.725Z,23.62
2022-09-07T19:25:09.854Z,23.55
2022-09-07T19:27:39.688Z,23.48
2022-09-07T19:30:06.467Z,23.45
2022-09-07T19:32:33.038Z,23.44
2022-09-07T19:34:59.770Z,23.34
2022-09-07T19:37:27.674Z,23.29
2022-09-07T19:39:57.570Z,23.19
2022-09-07T19:42:24.383Z,23.20
2022-09-07T19:44:54.416Z,23.17
2022-09-07T19:47:24.650Z,23.13
2022-09-07T19:49:52.322Z,22.97
2022-09-07T19:52:19.042Z,22.83
2022-09-07T19:54:48.936Z,22.87
2022-09-07T19:57:15.741Z,22.86
2022-09-07T19:59:42.323Z,22.77
2022-09-07T20:02:30.575Z,22.65
2022-09-07T20:04:58.886Z,22.64
2022-09-07T20:07:25.522Z,22.63
2022-09-07T20:09:55.159Z,22.61
2022-09-07T20:12:24.446Z,22.59
2022-09-07T20:14:53.322Z,22.53
2022-09-07T20:17:19.790Z,22.52
2022-09-07T20:19:46.328Z,22.55
2022-09-07T20:22:12.730Z,22.64
2022-09-07T20:24:39.965Z,22.66
2022-09-07T20:27:06.708Z,22.67
2022-09-07T20:29:37.527Z,22.64
2022-09-07T20:32:04.341Z,22.57
2022-09-07T20:34:33.556Z,22.57
2022-09-07T20:37:00.825Z,22.48
2022-09-07T20:39:29.947Z,22.50
2022-09-07T20:41:56.536Z,22.42
2022-09-07T20:44:23.296Z,22.34
2022-09-07T20:46:49.913Z,22.35
2022-09-07T20:49:16.463Z,22.34
2022-09-07T20:51:43.112Z,22.29
2022-09-07T20:54:11.217Z,22.19
2022-09-07T20:56:37.933Z,22.11
2022-09-07T20:59:04.621Z,22.03
2022-09-07T21:01:35.030Z,21.98
2022-09-07T21:04:02.009Z,21.97
2022-09-07T21:06:32.781Z,21.84
2022-09-07T21:09:02.868Z,21.71
2022-09-07T21:11:33.784Z,21.68
2022-09-07T21:14:07.230Z,21.68
2022-09-07T21:16:37.286Z,21.69
2022-09-07T21:19:05.698Z,21.72
2022-09-07T21:21:38.539Z,21.76
2022-09-07T21:24:19.809Z,21.78
2022-09-07T21:26:47.765Z,21.78
2022-09-07T21:29:20.426Z,21.73
2022-09-07T21:31:47.747Z,21.68
2022-09-07T21:34:15.180Z,21.63
2022-09-07T21:36:44.704Z,21.72
2022-09-07T21:39:14.456Z,21.66
2022-09-07T21:41:42.542Z,21.57
2022-09-07T21:44:14.109Z,21.64
2022-09-07T21:46:43.623Z,21.66
2022-09-07T21:49:11.338Z,21.60
2022-09-07T21:51:38.293Z,21.54
2022-09-07T21:54:05.044Z,21.54
2022-09-07T21:56:33.611Z,21.62
2022-09-07T21:59:01.696Z,21.63
2022-09-07T22:01:29.702Z,21.59
2022-09-07T22:04:04.547Z,21.56
2022-09-07T22:06:34.100Z,21.53
2022-09-07T22:09:02.158Z,21.49
2022-09-07T22:11:30.035Z,21.48
2022-09-07T22:13:59.145Z,21.34
2022-09-07T22:16:26.111Z,21.18
2022-09-07T22:18:57.041Z,21.18
2022-09-07T22:21:30.290Z,21.24
2022-09-07T22:24:00.215Z,21.24
2022-09-07T22:26:30.133Z,21.18
2022-09-07T22:28:58.359Z,21.11
2022-09-07T22:31:33.408Z,21.09
2022-09-07T22:34:04.983Z,21.09
2022-09-07T22:36:37.179Z,21.10
2022-09-07T22:39:06.813Z,21.11
2022-09-07T22:41:35.731Z,21.14
2022-09-07T22:44:02.851Z,21.12
2022-09-07T22:46:31.678Z,21.15
2022-09-07T22:48:59.296Z,21.17
2022-09-07T22:51:26.806Z,21.14
2022-09-07T22:53:57.573Z,21.14
2022-09-07T22:56:29.782Z,21.13
2022-09-07T22:59:05.252Z,21.13
2022-09-07T23:01:32.220Z,21.10
2022-09-07T23:03:59.625Z,21.06
2022-09-07T23:06:28.803Z,21.00
2022-09-07T23:08:57.378Z,21.02
2022-09-07T23:11:27.811Z,21.05
2022-09-07T23:13:58.903Z,21.06
2022-09-07T23:16:27.400Z,21.07
2022-09-07T23:18:55.339Z,21.11
2022-09-07T23:21:24.805Z,21.10
2022-09-07T23:23:57.167Z,21.09
2022-09-07T23:26:25.685Z,21.10
2022-09-07T23:28:56.487Z,21.02
2022-09-07T23:31:24.746Z,21.04
2022-09-07T23:33:54.226Z,21.02
2022-09-07T23:36:20.792Z,21.00
2022-09-07T23:38:47.643Z,20.99
2022-09-07T23:41:14.675Z,21.08
2022-09-07T23:43:41.521Z,21.07
2022-09-07T23:46:08.036Z,21.02
2022-09-07T23:48:34.782Z,20.95
2022-09-07T23:51:04.928Z,20.94
2022-09-07T23:53:31.805Z,20.82
2022-09-07T23:55:58.691Z,20.81
2022-09-07T23:58:25.259Z,20.82
